Time;durP1;ratioP1;P1;durP2;ratioP2;P2;SDS_P1;SDS_P2;PMS_P1;PMS_P2;Temp;Humidity;BMP_temperature;BMP_pressure;BME280_temperature;BME280_humidity;BME280_pressure;Samples;Min_cycle;Max_cycle;Signal;HPM_P1;HPM_P2
2022/05/16 00:01:10;;;;;;;;;18.00;18.00;;;;;20.11;59.20;101162.37;146629;606;45013;-72
2022/05/16 00:04:02;;;;;;;;;18.75;17.00;;;;;20.09;59.66;101164.06;146629;567;45031;-71
2022/05/16 00:06:54;;;;;;;;;17.25;15.25;;;;;20.08;59.21;101164.94;146629;604;46010;-69
2022/05/16 00:09:46;;;;;;;;;17.00;16.25;;;;;20.08;59.06;101157.94;146630;602;45011;-68
2022/05/16 00:12:39;;;;;;;;;16.00;14.50;;;;;20.06;58.31;101156.13;146627;577;45917;-68
2022/05/16 00:15:31;;;;;;;;;18.50;16.00;;;;;20.08;58.17;101160.56;146627;600;45020;-71
2022/05/16 00:18:23;;;;;;;;;13.25;13.25;;;;;20.16;58.44;101163.34;146624;576;45016;-71
2022/05/16 00:21:16;;;;;;;;;14.00;13.25;;;;;20.20;57.87;101148.50;146626;650;45020;-71
2022/05/16 00:24:08;;;;;;;;;16.50;15.25;;;;;20.22;57.86;101159.97;146629;612;46015;-71
2022/05/16 00:27:01;;;;;;;;;15.75;15.50;;;;;20.22;57.86;101160.84;146607;586;46010;-70
2022/05/16 00:29:53;;;;;;;;;15.25;14.50;;;;;20.18;58.17;101152.84;146605;577;46016;-71
2022/05/16 00:32:48;;;;;;;;;15.00;15.00;;;;;20.12;58.20;101153.59;146607;565;46020;-71
2022/05/16 00:35:40;;;;;;;;;14.25;14.25;;;;;20.06;58.37;101148.22;146607;628;46014;-72
2022/05/16 00:38:32;;;;;;;;;13.50;12.00;;;;;20.02;58.51;101149.91;146607;639;46010;-71
2022/05/16 00:41:24;;;;;;;;;14.75;13.50;;;;;20.03;58.81;101151.72;146604;659;46012;-71
2022/05/16 00:44:17;;;;;;;;;15.50;15.50;;;;;19.97;58.68;101146.31;146608;565;46010;-71
2022/05/16 00:47:09;;;;;;;;;14.75;13.00;;;;;19.92;59.12;101150.59;146605;569;46016;-72
2022/05/16 00:50:05;;;;;;;;;16.50;16.00;;;;;19.89;59.47;101153.16;146607;584;46010;-69
2022/05/16 00:52:57;;;;;;;;;15.75;15.00;;;;;19.83;59.96;101151.28;146605;589;46918;-69
2022/05/16 00:55:49;;;;;;;;;17.00;15.50;;;;;19.78;60.05;101144.16;146606;601;46030;-71
2022/05/16 00:58:44;;;;;;;;;17.00;15.75;;;;;19.76;59.12;101164.31;146605;602;46016;-70
2022/05/16 01:04:49;;;;;;;;;14.75;13.75;;;;;19.68;59.83;101144.84;146605;598;46012;-71
2022/05/16 01:07:44;;;;;;;;;17.75;16.00;;;;;19.63;59.65;101142.09;146606;671;47010;-70
2022/05/16 01:10:37;;;;;;;;;17.75;16.50;;;;;19.64;60.09;101145.59;146605;566;46012;-71
2022/05/16 01:13:32;;;;;;;;;16.25;16.00;;;;;19.64;59.73;101142.97;146608;563;46020;-71
2022/05/16 01:16:24;;;;;;;;;16.25;16.25;;;;;19.66;59.60;101142.19;146603;658;46017;-71
2022/05/16 01:19:16;;;;;;;;;19.25;15.50;;;;;19.70;60.63;101140.50;146608;569;46010;-71
2022/05/16 01:22:47;;;;;;;;;18.25;16.25;;;;;19.56;58.52;101122.66;146605;672;47012;-71
2022/05/16 01:25:39;;;;;;;;;17.50;17.50;;;;;19.71;59.77;101145.78;146604;599;46021;-76
2022/05/16 01:28:32;;;;;;;;;20.00;19.00;;;;;19.75;59.67;101152.00;146604;627;46016;-77
2022/05/16 01:31:24;;;;;;;;;19.50;17.75;;;;;19.77;59.64;101143.28;146608;610;46010;-68
2022/05/16 01:34:17;;;;;;;;;19.75;16.50;;;;;19.78;60.63;101146.78;146604;670;46917;-70
2022/05/16 01:37:09;;;;;;;;;18.50;16.75;;;;;19.76;60.04;101154.66;146608;687;46010;-76
2022/05/16 01:40:01;;;;;;;;;17.50;16.00;;;;;19.77;59.30;101160.81;146604;595;46918;-79
2022/05/16 01:42:53;;;;;;;;;19.75;17.25;;;;;19.79;59.75;101153.84;146609;681;46010;-77
2022/05/16 01:45:48;;;;;;;;;18.50;17.00;;;;;19.82;59.84;101153.91;146605;594;46030;-70
2022/05/16 01:48:41;;;;;;;;;21.50;19.50;;;;;19.83;60.75;101150.41;146608;585;47010;-73
2022/05/16 01:51:33;;;;;;;;;25.25;21.25;;;;;19.83;60.84;101147.78;146606;581;46016;-71
2022/05/16 01:54:25;;;;;;;;;23.25;22.00;;;;;19.82;60.83;101152.16;146608;566;46020;-73
2022/05/16 01:57:17;;;;;;;;;22.50;21.75;;;;;19.81;61.10;101153.03;146607;616;46012;-74
2022/05/16 02:00:11;;;;;;;;;23.00;22.25;;;;;19.79;61.85;101159.09;146605;564;46020;-75
2022/05/16 02:03:05;;;;;;;;;25.75;20.75;;;;;19.73;62.86;101156.34;146608;581;46012;-81
2022/05/16 02:05:58;;;;;;;;;27.50;24.50;;;;;19.67;62.63;101154.47;146605;696;46010;-71
2022/05/16 02:08:51;;;;;;;;;25.50;24.25;;;;;19.65;62.59;101150.03;146605;564;46016;-77
2022/05/16 02:11:43;;;;;;;;;30.50;25.50;;;;;19.64;62.31;101154.41;146610;595;45020;-78
2022/05/16 02:14:35;;;;;;;;;25.50;24.00;;;;;19.58;63.72;101154.25;146604;674;46016;-72
2022/05/16 02:17:27;;;;;;;;;24.00;22.00;;;;;19.49;63.87;101149.66;146607;564;46020;-71
2022/05/16 02:20:20;;;;;;;;;24.00;21.50;;;;;19.45;63.78;101157.47;146605;577;46012;-71
2022/05/16 02:26:23;;;;;;;;;21.75;21.00;;;;;19.43;62.71;101156.53;146605;584;46016;-70
2022/05/16 02:29:16;;;;;;;;;27.50;24.50;;;;;19.47;63.00;101161.00;146609;564;46010;-70
2022/05/16 02:32:10;;;;;;;;;23.00;22.50;;;;;19.49;63.05;101159.31;146605;604;46012;-71
2022/05/16 02:35:03;;;;;;;;;23.00;18.75;;;;;19.47;64.14;101161.00;146604;597;46020;-71
2022/05/16 02:37:58;;;;;;;;;20.50;20.25;;;;;19.41;63.42;101160.88;146602;609;46017;-70
2022/05/16 02:40:50;;;;;;;;;18.75;18.75;;;;;19.34;62.40;101163.34;146608;671;45020;-68
2022/05/16 02:43:42;;;;;;;;;22.00;20.00;;;;;19.30;62.64;101164.16;146605;650;46012;-69
2022/05/16 02:46:34;;;;;;;;;22.00;18.75;;;;;19.27;62.52;101166.72;146608;564;46021;-70
2022/05/16 02:49:26;;;;;;;;;17.75;17.50;;;;;19.21;62.96;101173.56;146604;577;46917;-70
2022/05/16 02:52:19;;;;;;;;;21.75;19.25;;;;;19.12;62.94;101169.00;146607;581;46020;-69
2022/05/16 02:55:11;;;;;;;;;19.00;15.50;;;;;18.22;62.28;101012.69;146605;578;47012;-69
2022/05/16 02:58:03;;;;;;;;;18.00;17.75;;;;;19.14;61.94;101175.19;146607;591;46020;-69
2022/05/16 03:00:55;;;;;;;;;17.50;16.75;;;;;19.18;62.44;101176.13;146604;576;46017;-74
2022/05/16 03:03:48;;;;;;;;;17.25;17.25;;;;;19.16;62.46;101173.50;146607;752;46010;-71
2022/05/16 03:06:41;;;;;;;;;17.75;16.00;;;;;19.16;61.81;101184.00;146607;571;46917;-74
2022/05/16 03:09:34;;;;;;;;;19.50;17.75;;;;;19.18;62.01;101186.66;146607;615;46020;-73
2022/05/16 03:12:26;;;;;;;;;20.00;18.00;;;;;19.17;61.97;101185.75;146603;610;46014;-72
2022/05/16 03:15:20;;;;;;;;;18.00;17.00;;;;;19.16;62.57;101186.63;146607;605;46010;-72
2022/05/16 03:18:12;;;;;;;;;16.25;15.75;;;;;19.13;61.74;101183.94;146604;578;46014;-70
2022/05/16 03:21:04;;;;;;;;;18.25;16.50;;;;;19.14;61.97;101185.69;146606;570;46012;-71
2022/05/16 03:23:57;;;;;;;;;19.00;17.00;;;;;19.12;63.18;101190.91;146606;583;47014;-72
2022/05/16 03:26:49;;;;;;;;;17.75;16.25;;;;;18.19;62.74;101036.25;146627;612;45010;-71
2022/05/16 03:29:41;;;;;;;;;19.75;17.25;;;;;19.10;62.23;101189.13;146628;576;45021;-71
2022/05/16 03:32:33;;;;;;;;;21.50;18.75;;;;;19.11;62.36;101202.28;146626;628;46010;-70
2022/05/16 03:35:25;;;;;;;;;16.50;16.50;;;;;19.13;61.96;101208.47;146627;593;45012;-75
2022/05/16 03:41:27;;;;;;;;;20.00;16.25;;;;;19.19;62.05;101215.63;146628;616;45016;-74
2022/05/16 03:44:19;;;;;;;;;21.50;18.50;;;;;19.20;63.23;101219.13;146628;573;45020;-72
2022/05/16 03:47:11;;;;;;;;;21.75;21.75;;;;;19.17;62.61;101225.19;146628;592;45016;-72
2022/05/16 03:50:03;;;;;;;;;25.00;20.25;;;;;19.14;62.53;101225.12;146629;652;45010;-71
2022/05/16 03:52:58;;;;;;;;;21.75;20.50;;;;;19.14;63.20;101227.75;146626;598;45013;-72
2022/05/16 03:55:50;;;;;;;;;22.50;20.00;;;;;19.13;63.56;101232.12;146628;589;45024;-73
2022/05/16 03:58:42;;;;;;;;;23.00;21.75;;;;;19.15;63.52;101234.78;146624;610;45017;-72
2022/05/16 04:01:35;;;;;;;;;28.00;26.00;;;;;19.17;64.00;101240.97;146627;593;46010;-72
2022/05/16 04:04:27;;;;;;;;;25.50;25.00;;;;;19.21;63.03;101245.44;146627;563;45016;-71
2022/05/16 04:07:19;;;;;;;;;35.00;30.00;;;;;19.28;63.45;101257.00;146628;617;45029;-72
2022/05/16 04:10:12;;;;;;;;;24.50;22.50;;;;;19.37;63.88;101251.97;146622;579;46918;-72
2022/05/16 04:13:05;;;;;;;;;23.50;22.50;;;;;19.44;63.10;101253.91;146628;564;45028;-71
2022/05/16 04:15:57;;;;;;;;;23.25;21.00;;;;;19.55;63.32;101255.00;146627;553;45017;-71
2022/05/16 04:18:49;;;;;;;;;28.25;25.75;;;;;19.68;63.14;101255.34;146625;574;46010;-72
2022/05/16 04:21:42;;;;;;;;;21.25;19.00;;;;;19.79;63.04;101257.34;146625;573;45016;-72
2022/05/16 04:24:35;;;;;;;;;24.75;23.00;;;;;19.91;63.63;101255.84;146625;603;45020;-72
2022/05/16 04:27:27;;;;;;;;;24.75;21.00;;;;;20.03;62.91;101264.91;146605;675;46016;-74
2022/05/16 04:30:19;;;;;;;;;28.00;26.00;;;;;20.19;62.63;101267.84;146608;633;46021;-74
2022/05/16 04:33:11;;;;;;;;;22.50;21.00;;;;;20.34;62.60;101275.16;146606;615;46016;-74
2022/05/16 04:36:04;;;;;;;;;22.00;20.50;;;;;19.59;62.65;101112.22;146608;579;46020;-73
2022/05/16 04:38:56;;;;;;;;;23.50;22.50;;;;;20.66;62.80;101273.19;146605;702;46016;-74
2022/05/16 04:44:58;;;;;;;;;22.50;21.25;;;;;21.01;61.21;101280.84;146605;569;46018;-73
2022/05/16 04:47:53;;;;;;;;;27.00;23.25;;;;;21.20;60.84;101275.91;146607;579;46020;-74
2022/05/16 04:50:45;;;;;;;;;28.25;25.00;;;;;21.39;60.45;101276.25;146606;570;47012;-74
2022/05/16 04:53:37;;;;;;;;;29.00;27.50;;;;;21.59;60.07;101274.81;146602;585;46021;-73
2022/05/16 04:56:30;;;;;;;;;24.75;24.50;;;;;21.76;59.58;101279.44;146604;569;46024;-73
2022/05/16 04:59:23;;;;;;;;;26.75;26.75;;;;;21.90;59.04;101280.53;146608;617;46029;-73
2022/05/16 05:02:15;;;;;;;;;29.50;26.75;;;;;22.07;58.07;101283.38;146607;595;46031;-73
2022/05/16 05:05:07;;;;;;;;;33.75;29.25;;;;;22.24;57.25;101287.16;146606;590;46020;-73
2022/05/16 05:07:59;;;;;;;;;33.00;28.50;;;;;22.36;56.64;101284.66;146608;610;46014;-69
2022/05/16 05:17:15;;;;;;;;;31.25;29.00;;;;;22.65;54.89;101302.63;146605;668;46020;-71
2022/05/16 05:20:13;;;;;;;;;28.50;26.75;;;;;22.73;55.10;101300.03;146605;589;46016;-72
2022/05/16 05:23:06;;;;;;;;;29.50;23.00;;;;;22.79;54.43;101310.69;146607;592;46034;-71
2022/05/16 05:26:00;;;;;;;;;29.00;25.50;;;;;22.89;54.74;101309.88;146605;598;46016;-71
2022/05/16 05:28:53;;;;;;;;;29.50;26.25;;;;;22.97;54.17;101310.03;146605;573;46011;-71
2022/05/16 05:31:45;;;;;;;;;29.75;25.50;;;;;23.10;53.69;101318.94;146605;630;46014;-71
2022/05/16 05:34:37;;;;;;;;;27.50;23.75;;;;;23.20;53.96;101321.69;146609;566;46010;-69
2022/05/16 05:37:30;;;;;;;;;29.75;23.50;;;;;23.32;53.68;101315.63;146603;601;46036;-72
2022/05/16 05:40:22;;;;;;;;;31.25;25.00;;;;;22.59;54.03;101168.63;146609;569;46010;-71
2022/05/16 05:43:14;;;;;;;;;28.75;27.25;;;;;23.60;52.57;101322.00;146605;584;46013;-71
2022/05/16 05:46:07;;;;;;;;;31.50;28.25;;;;;23.68;52.26;101315.00;146608;618;46020;-71
2022/05/16 05:48:59;;;;;;;;;33.25;30.75;;;;;23.74;51.52;101324.81;146606;570;46012;-71
2022/05/16 05:51:51;;;;;;;;;20.75;17.25;;;;;23.82;52.31;101319.53;146609;601;46010;-72
2022/05/16 05:54:43;;;;;;;;;33.00;29.25;;;;;23.97;52.20;101327.59;146606;565;46014;-71
2022/05/16 05:57:35;;;;;;;;;34.25;29.00;;;;;24.11;51.91;101333.84;146610;582;45029;-71
2022/05/16 06:00:28;;;;;;;;;81.67;75.67;;;;;24.23;52.03;101322.41;146605;611;46016;-70
2022/05/16 06:03:20;;;;;;;;;34.25;30.00;;;;;24.37;51.61;101325.13;146606;593;46012;-71
2022/05/16 06:06:12;;;;;;;;;26.50;26.00;;;;;24.55;51.54;101333.19;146606;605;46013;-71
2022/05/16 06:09:05;;;;;;;;;34.00;30.50;;;;;24.68;50.74;101330.59;146608;596;46010;-71
2022/05/16 06:11:59;;;;;;;;;32.50;30.25;;;;;24.79;51.11;101331.47;146605;601;46016;-71
2022/05/16 06:14:51;;;;;;;;;35.50;30.25;;;;;24.87;49.76;101335.94;146605;571;46021;-72
2022/05/16 06:17:43;;;;;;;;;36.00;31.00;;;;;24.92;50.79;101329.72;146605;571;46012;-71
2022/05/16 06:20:36;;;;;;;;;16.75;15.25;;;;;24.95;50.80;101337.69;146607;573;46021;-73
2022/05/16 06:23:27;;;;;;;;;33.00;31.00;;;;;24.86;51.18;101331.50;146605;580;46917;-71
2022/05/16 06:26:21;;;;;;;;;29.50;26.50;;;;;24.93;51.11;101337.72;146608;594;46013;-72
2022/05/16 06:29:13;;;;;;;;;28.25;25.25;;;;;24.97;50.66;101339.47;146606;728;46012;-71
2022/05/16 06:32:06;;;;;;;;;27.75;25.25;;;;;25.00;51.42;101338.59;146608;565;46010;-72
2022/05/16 06:34:58;;;;;;;;;25.75;22.50;;;;;25.08;50.44;101340.38;146604;620;46918;-73
2022/05/16 06:37:50;;;;;;;;;30.50;23.50;;;;;25.14;50.53;101338.63;146608;588;46020;-71
2022/05/16 06:40:46;;;;;;;;;25.75;25.00;;;;;25.17;49.59;101336.91;146605;595;46016;-72
2022/05/16 06:43:38;;;;;;;;;24.75;22.25;;;;;25.30;49.68;101345.75;146607;588;46021;-73
2022/05/16 06:46:30;;;;;;;;;25.75;24.00;;;;;25.43;49.73;101341.31;146603;577;46016;-72
2022/05/16 06:49:23;;;;;;;;;24.50;23.00;;;;;24.83;49.45;101213.91;146610;595;46010;-72
2022/05/16 06:52:16;;;;;;;;;24.50;22.50;;;;;25.66;49.41;101347.50;146607;597;46016;-72
2022/05/16 06:55:09;;;;;;;;;22.00;21.75;;;;;25.75;49.61;101344.81;146602;600;46913;-72
2022/05/16 06:58:01;;;;;;;;;25.50;22.75;;;;;25.84;49.65;101340.44;146608;571;46013;-72
2022/05/16 07:00:53;;;;;;;;;22.25;21.75;;;;;25.89;48.99;101341.28;146611;597;46010;-72
2022/05/16 07:03:45;;;;;;;;;26.50;23.25;;;;;25.90;49.01;101343.94;146605;611;46017;-71
2022/05/16 07:06:37;;;;;;;;;24.25;22.50;;;;;25.90;48.51;101348.38;146607;586;46020;-72
2022/05/16 07:09:30;;;;;;;;;25.00;23.00;;;;;25.89;49.38;101341.28;146605;588;46029;-72
2022/05/16 07:12:22;;;;;;;;;24.00;24.00;;;;;25.98;49.41;101343.91;146609;579;46011;-72
2022/05/16 07:15:15;;;;;;;;;27.75;26.75;;;;;26.10;50.04;101341.22;146604;573;46016;-71
2022/05/16 07:18:07;;;;;;;;;16.50;16.50;;;;;26.25;48.41;101338.53;146607;588;46020;-71
2022/05/16 07:21:01;;;;;;;;;20.25;18.75;;;;;26.43;47.59;101334.03;146609;587;46012;-71
2022/05/16 07:23:53;;;;;;;;;19.25;16.25;;;;;26.57;46.92;101339.31;146605;609;46020;-71
2022/05/16 07:29:55;;;;;;;;;18.75;17.50;;;;;26.60;46.60;101341.97;146626;570;45020;-71
2022/05/16 07:32:50;;;;;;;;;12.00;11.00;;;;;26.60;46.32;101336.62;146628;607;46012;-71
2022/05/16 07:35:42;;;;;;;;;15.00;15.00;;;;;26.39;46.26;101340.28;146628;603;45020;-71
2022/05/16 07:38:34;;;;;;;;;17.00;16.50;;;;;26.30;46.28;101340.31;146629;597;45012;-69
2022/05/16 07:41:28;;;;;;;;;18.00;16.50;;;;;26.21;45.01;101328.81;146629;575;45010;-69
2022/05/16 07:44:21;;;;;;;;;20.50;17.25;;;;;26.24;44.50;101334.13;146625;635;45918;-69
2022/05/16 07:47:13;;;;;;;;;19.25;17.00;;;;;26.25;44.04;101338.53;146629;573;45010;-69
2022/05/16 07:50:07;;;;;;;;;17.25;15.00;;;;;26.31;45.46;101334.09;146627;575;45016;-70
2022/05/16 07:52:59;;;;;;;;;15.00;14.00;;;;;26.38;45.81;101335.81;146625;581;45020;-70
2022/05/16 07:55:57;;;;;;;;;16.00;15.50;;;;;26.49;45.73;101329.59;146625;629;45918;-70
2022/05/16 07:58:50;;;;;;;;;16.25;14.25;;;;;26.69;44.42;101331.28;146627;590;46010;-70
2022/05/16 08:01:42;;;;;;;;;16.25;13.75;;;;;26.81;43.63;101340.97;146627;569;45012;-70
2022/05/16 08:04:34;;;;;;;;;17.75;16.75;;;;;26.84;43.22;101332.97;146629;579;45011;-70
2022/05/16 08:07:26;;;;;;;;;16.00;15.50;;;;;26.90;44.35;101338.25;146626;587;46014;-71
2022/05/16 08:10:30;;;;;;;;;15.50;14.75;;;;;27.05;44.70;101345.25;146627;614;45020;-70
2022/05/16 08:13:22;;;;;;;;;17.25;14.75;;;;;27.12;44.03;101341.66;146626;594;45034;-71
2022/05/16 08:16:14;;;;;;;;;16.25;13.75;;;;;27.26;44.97;101338.91;146627;686;45020;-70
2022/05/16 08:19:07;;;;;;;;;19.25;16.25;;;;;27.42;43.17;101335.25;146623;578;45017;-70
2022/05/16 08:21:59;;;;;;;;;12.50;12.50;;;;;27.49;43.01;101336.94;146626;630;46010;-70
2022/05/16 08:24:51;;;;;;;;;14.00;13.50;;;;;27.54;43.28;101336.88;146622;615;46012;-69
2022/05/16 08:27:43;;;;;;;;;14.25;14.25;;;;;27.66;42.89;101335.88;146608;603;46020;-70
2022/05/16 08:30:34;;;;;;;;;16.00;14.75;;;;;27.72;42.30;101333.16;146597;639;47917;-71
2022/05/16 08:33:27;;;;;;;;;16.25;13.50;;;;;27.80;42.51;101329.56;146609;647;46010;-70
2022/05/16 08:43:06;;;;;;;;;16.75;16.75;;;;;27.58;41.70;101291.56;146605;611;46017;-70
2022/05/16 08:46:13;;;;;;;;;11.75;10.00;;;;;27.87;41.49;101333.06;146609;578;46030;-70
2022/05/16 08:49:28;;;;;;;;;14.00;13.75;;;;;27.85;42.32;101332.16;146605;658;46017;-70
2022/05/16 08:53:04;;;;;;;;;17.75;15.25;;;;;27.85;42.98;101334.84;146607;590;46010;-71
2022/05/16 08:56:08;;;;;;;;;15.00;15.00;;;;;28.02;43.45;101330.22;146606;581;46013;-70
2022/05/16 08:59:04;;;;;;;;;15.75;13.25;;;;;28.15;41.92;101325.63;146607;563;46010;-70
2022/05/16 09:02:00;;;;;;;;;13.00;13.00;;;;;28.25;42.33;101332.59;146607;581;46012;-70
2022/05/16 09:05:05;;;;;;;;;16.00;14.75;;;;;28.33;43.05;101329.84;146606;566;46010;-70
2022/05/16 09:08:00;;;;;;;;;13.00;12.00;;;;;28.40;41.19;101326.22;146605;643;46016;-69
2022/05/16 09:11:30;;;;;;;;;16.00;14.00;;;;;27.75;41.03;101206.13;146608;565;46020;-69
2022/05/16 09:15:00;;;;;;;;;14.00;13.00;;;;;28.58;41.37;101337.56;146607;576;46012;-72
2022/05/16 09:18:48;;;;;;;;;13.00;13.00;;;;;28.53;41.47;101327.81;146610;581;46021;-70
2022/05/16 09:22:15;;;;;;;;;14.75;14.75;;;;;28.54;41.74;101326.94;146607;589;46016;-71
2022/05/16 09:25:26;;;;;;;;;11.50;11.50;;;;;28.66;43.67;101322.31;146608;583;46010;-71
2022/05/16 09:28:35;;;;;;;;;19.00;17.00;;;;;28.75;41.58;101317.75;146603;628;46016;-70
2022/05/16 09:31:43;;;;;;;;;12.50;12.50;;;;;28.72;41.60;101324.91;146607;612;46010;-71
2022/05/16 09:34:39;;;;;;;;;16.75;14.25;;;;;28.71;40.74;101317.81;146602;577;46017;-72
2022/05/16 09:37:33;;;;;;;;;14.50;14.50;;;;;28.68;40.65;101321.41;146606;577;46020;-72
2022/05/16 09:40:37;;;;;;;;;13.75;13.75;;;;;28.64;40.74;101313.47;146604;604;46017;-69
2022/05/16 09:43:30;;;;;;;;;14.00;12.50;;;;;28.76;40.49;101305.31;146607;613;47010;-70
2022/05/16 09:46:57;;;;;;;;;12.25;11.00;;;;;28.88;41.66;101301.53;146605;585;46016;-70
2022/05/16 09:50:07;;;;;;;;;14.00;13.75;;;;;29.00;41.29;101307.59;146605;626;46021;-70
2022/05/16 09:53:38;;;;;;;;;14.75;12.00;;;;;28.35;40.47;101172.47;146604;583;46917;-70
2022/05/16 09:56:33;;;;;;;;;13.50;12.50;;;;;29.15;40.21;101292.25;146608;610;46010;-70
2022/05/16 09:59:51;;;;;;;;;13.50;12.50;;;;;29.24;38.61;101300.09;146604;587;46016;-70
2022/05/16 10:02:43;;;;;;;;;15.50;13.00;;;;;29.18;40.43;101297.53;146607;674;46021;-71
2022/05/16 10:05:36;;;;;;;;;14.25;12.50;;;;;29.18;38.71;101298.41;146606;574;46014;-69
2022/05/16 10:08:45;;;;;;;;;10.75;9.50;;;;;29.18;37.23;101295.75;146609;718;46010;-70
2022/05/16 10:11:38;;;;;;;;;12.75;11.75;;;;;29.15;40.44;101292.25;146605;643;46918;-69
2022/05/16 10:14:30;;;;;;;;;12.50;11.25;;;;;28.99;37.48;101294.25;146608;674;46020;-70
2022/05/16 10:17:37;;;;;;;;;13.50;13.00;;;;;29.09;42.68;101293.22;146618;565;46016;-70
2022/05/16 10:20:34;;;;;;;;;13.75;13.00;;;;;29.18;39.45;101284.19;146603;575;46020;-70
2022/05/16 10:23:39;;;;;;;;;14.50;14.50;;;;;29.30;40.44;101273.28;146604;581;46016;-71
2022/05/16 10:26:35;;;;;;;;;14.00;12.25;;;;;29.34;41.32;101274.13;146605;571;46012;-71
2022/05/16 10:29:31;;;;;;;;;15.00;12.50;;;;;29.30;40.86;101270.63;146606;572;46016;-70
2022/05/16 10:36:12;;;;;;;;;14.50;13.25;;;;;29.34;41.81;101263.44;146607;654;47012;-71
2022/05/16 10:39:12;;;;;;;;;14.00;14.00;;;;;29.39;41.21;101265.13;146607;619;47013;-71
2022/05/16 10:42:25;;;;;;;;;14.00;13.00;;;;;29.43;38.89;101263.25;146605;632;46017;-70
2022/05/16 10:45:30;;;;;;;;;13.00;10.75;;;;;29.49;39.23;101254.25;146606;658;46010;-70
2022/05/16 10:48:52;;;;;;;;;13.25;12.00;;;;;29.55;40.82;101248.81;146608;605;46017;-71
2022/05/16 10:52:12;;;;;;;;;12.75;11.00;;;;;28.91;40.65;101115.53;146605;622;46020;-70
2022/05/16 10:55:04;;;;;;;;;11.00;9.75;;;;;29.70;37.61;101248.53;146606;680;46016;-70
2022/05/16 10:58:29;;;;;;;;;12.50;11.25;;;;;29.73;37.95;101244.94;146604;578;46010;-70
2022/05/16 11:01:29;;;;;;;;;15.00;10.25;;;;;29.73;36.71;101240.47;146605;627;47012;-71
2022/05/16 11:05:19;;;;;;;;;12.75;12.75;;;;;28.88;39.98;101086.25;146609;566;46010;-70
2022/05/16 11:08:53;;;;;;;;;15.00;13.00;;;;;28.67;39.75;101039.47;146604;602;47012;-70
2022/05/16 11:12:20;;;;;;;;;12.75;12.75;;;;;29.38;40.72;101158.31;146607;603;46020;-70
2022/05/16 11:15:52;;;;;;;;;12.75;12.75;;;;;29.02;39.99;101093.12;146606;563;46016;-71
2022/05/16 11:19:20;;;;;;;;;12.75;12.25;;;;;29.19;40.01;101099.00;146607;628;46010;-70
2022/05/16 11:22:56;;;;;;;;;15.50;14.00;;;;;30.02;41.18;101212.25;146605;598;46016;-72
2022/05/16 11:26:02;;;;;;;;;16.00;14.75;;;;;30.12;39.22;101205.75;146606;657;46021;-70
2022/05/16 11:29:19;;;;;;;;;16.25;14.25;;;;;30.21;38.36;101207.41;146605;593;46917;-70
2022/05/16 11:33:11;;;;;;;;;16.25;16.25;;;;;29.59;40.33;101077.69;146606;596;46010;-70
2022/05/16 11:36:10;;;;;;;;;15.75;15.50;;;;;30.44;39.65;101207.75;146605;586;46012;-71
2022/05/16 11:39:25;;;;;;;;;14.00;12.00;;;;;30.45;40.26;101208.62;146609;672;46020;-69
2022/05/16 11:42:58;;;;;;;;;14.75;14.50;;;;;29.67;39.56;101059.72;146608;574;46012;-69
2022/05/16 11:46:32;;;;;;;;;16.75;16.00;;;;;30.42;40.94;101189.97;146611;594;46011;-69
2022/05/16 11:49:52;;;;;;;;;17.00;15.50;;;;;28.84;41.01;100953.72;146606;643;46916;-69
2022/05/16 11:53:31;;;;;;;;;15.75;15.75;;;;;30.17;40.00;101186.97;146605;683;46022;-69
2022/05/16 12:03:22;;;;;;;;;10.00;9.75;;;;;30.35;40.19;101147.31;146604;619;46916;-71
2022/05/16 12:06:42;;;;;;;;;15.75;15.75;;;;;30.39;40.37;101137.41;146608;580;46010;-71
2022/05/16 12:09:36;;;;;;;;;14.50;12.50;;;;;30.33;38.92;101138.44;146604;636;46916;-69
2022/05/16 12:12:52;;;;;;;;;16.00;16.00;;;;;30.32;40.85;101136.69;146609;642;46020;-71
2022/05/16 12:15:44;;;;;;;;;17.75;15.25;;;;;30.43;40.63;101144.44;146606;644;46016;-70
2022/05/16 12:18:41;;;;;;;;;14.25;14.25;;;;;30.52;40.63;101130.84;146607;596;46010;-72
2022/05/16 12:21:38;;;;;;;;;16.25;16.25;;;;;30.48;41.04;101126.50;146605;605;46016;-71
2022/05/16 12:25:02;;;;;;;;;14.50;13.25;;;;;30.42;41.60;101123.97;146607;586;46011;-70
2022/05/16 12:28:23;;;;;;;;;16.00;14.00;;;;;30.19;42.34;101099.53;146607;703;46016;-70
2022/05/16 12:31:15;;;;;;;;;15.75;14.75;;;;;30.30;41.74;101122.47;146608;654;46021;-70
2022/05/16 12:34:07;;;;;;;;;15.00;14.25;;;;;30.24;41.11;101117.25;146604;577;46917;-71
2022/05/16 12:37:04;;;;;;;;;18.00;15.25;;;;;30.18;41.38;101120.03;146603;575;46020;-70
2022/05/16 12:40:11;;;;;;;;;16.50;15.25;;;;;30.18;42.18;101124.53;146604;577;46017;-71
2022/05/16 12:43:40;;;;;;;;;16.00;15.75;;;;;30.10;42.42;101127.38;146608;664;46020;-70
2022/05/16 12:47:25;;;;;;;;;19.50;17.00;;;;;29.88;42.69;101124.31;146604;634;46017;-71
2022/05/16 12:51:04;;;;;;;;;15.00;15.00;;;;;28.92;43.94;100997.19;146606;602;46020;-71
2022/05/16 12:54:28;;;;;;;;;18.50;18.00;;;;;28.59;45.24;100981.81;146603;595;46017;-70
2022/05/16 12:57:59;;;;;;;;;18.00;17.00;;;;;29.14;45.96;101136.50;146606;595;46020;-72
2022/05/16 13:01:17;;;;;;;;;15.75;15.25;;;;;28.90;44.97;101124.44;146607;571;46013;-70
2022/05/16 13:04:33;;;;;;;;;16.50;15.50;;;;;28.84;45.63;101115.66;146607;633;46010;-71
2022/05/16 13:07:57;;;;;;;;;15.00;12.75;;;;;28.50;44.88;101054.88;146605;583;46017;-71
2022/05/16 13:11:34;;;;;;;;;18.50;17.50;;;;;28.81;44.85;101105.91;146605;590;46010;-71
2022/05/16 13:15:10;;;;;;;;;16.00;13.25;;;;;28.27;44.09;101020.59;146605;649;46012;-73
2022/05/16 13:18:02;;;;;;;;;15.25;14.50;;;;;28.65;44.34;101104.44;146609;596;46020;-71
2022/05/16 13:20:59;;;;;;;;;17.75;15.25;;;;;28.60;45.25;101103.62;146604;629;46917;-70
2022/05/16 13:23:53;;;;;;;;;15.25;15.00;;;;;28.48;42.52;101089.62;146609;635;46012;-70
2022/05/16 13:30:04;;;;;;;;;14.00;13.25;;;;;28.21;44.51;101084.69;146626;640;45020;-70
2022/05/16 13:32:56;;;;;;;;;12.50;12.00;;;;;28.03;44.24;101088.53;146624;602;45016;-70
2022/05/16 13:35:48;;;;;;;;;15.00;15.00;;;;;27.90;44.95;101092.28;146628;629;45914;-71
2022/05/16 13:38:41;;;;;;;;;14.50;14.25;;;;;27.81;44.69;101080.84;146626;592;45033;-70
2022/05/16 13:41:36;;;;;;;;;16.50;15.50;;;;;27.83;45.12;101087.03;146629;570;45010;-71
2022/05/16 13:44:29;;;;;;;;;13.75;11.25;;;;;27.85;44.08;101081.66;146626;665;45017;-71
2022/05/16 13:47:26;;;;;;;;;14.50;13.00;;;;;27.86;44.14;101072.78;146628;575;45010;-71
2022/05/16 13:50:31;;;;;;;;;11.25;11.25;;;;;27.90;44.17;101074.50;146626;611;45016;-70
2022/05/16 13:53:28;;;;;;;;;14.50;14.00;;;;;27.99;44.12;101081.47;146628;584;45011;-71
2022/05/16 13:56:20;;;;;;;;;14.50;14.50;;;;;28.08;44.86;101082.22;146623;615;46014;-71
2022/05/16 13:59:13;;;;;;;;;14.50;13.50;;;;;28.23;44.00;101097.09;146629;590;45011;-70
2022/05/16 14:02:15;;;;;;;;;16.00;14.25;;;;;28.33;44.30;101092.50;146629;601;44919;-71
2022/05/16 14:05:28;;;;;;;;;16.00;16.00;;;;;28.33;45.67;101084.50;146626;595;45010;-71
2022/05/16 14:08:40;;;;;;;;;19.00;16.00;;;;;28.46;44.65;101083.41;146622;610;45919;-71
2022/05/16 14:11:32;;;;;;;;;15.50;14.00;;;;;28.55;44.72;101088.59;146625;589;46010;-71
2022/05/16 14:14:28;;;;;;;;;16.00;14.75;;;;;28.55;46.40;101099.25;146623;586;45919;-71
2022/05/16 14:17:46;;;;;;;;;13.25;13.25;;;;;28.40;46.30;101099.50;146626;566;45011;-70